Ronald Reagan Washington National Airport
KDCA : now visible

Airfield :











YOU CAN JOIN US ON...

 
LOGIN :

Register | Disclaimer

   EN    FR    IT 

 









Legend :    VFR   Marginal VFR   IFR   Intensive IFR   Very Intensive IFR
Visi :
Ceiling :
>= 8 km
>= 3000ft
5 to 8 km
1000 to 3000 ft
1500m to 5 km
500 to 1000 ft
800 to 1500m
200 to 500 ft
< 800m
< 200 ft
Symbols :   Thunderstorms  Fog  Heavy snow  Heavy precipitations  Wind > 20 kt






- Airport Elevation : 15 ft
- IATA code : DCA


KDCA - Ronald Reagan Washington National

CURRENT METAR :
  • 042352Z 14007KT 10SM FEW120 BKN250 29/20 A2991 RMK AO2 SLP127 60000 T02940200 10344 20294 57001

EXPIRED METARs :
  • 042252Z 13005KT 10SM FEW050 BKN250 31/20 A2991 RMK AO2 SLP127 CB DSNT SW MOV SE T03060200
  • 042152Z 10007KT 10SM FEW050 SCT250 31/20 A2990 RMK AO2 SLP126 CB DSNT S MOV S T03110200

TAF KDCA
Valid from the 05 at 00:00 until the 06 at 06:00 UTC


042339Z 0500/0606 13005KT P6SM SCT050 BKN250
FM050400 17004KT P6SM SCT080
FM051800 19005KT P6SM SCT060
FM060100 18005KT P6SM SCT250
KZDC FIR / North America



MET'MAP, your aeronautical weather chart ! - Copyright ORBIFLY December 2007 - Disclaimer

ORBIFLY MET'MAP TEAM :

Programming & Development : Alexandra Zaïnal
Concept & original design : Baudouin d'Aumeries
Assistance for programming : Marc-Olivier Méhu
Technical & hardware support : Manuel Goepfert

Contact : metmap@orbifly.com




SOURCES & CREDITS :

   NOAA       Earth
Advisory